Time;durP1;ratioP1;P1;durP2;ratioP2;P2;SDS_P1;SDS_P2;PMS_P1;PMS_P2;Temp;Humidity;BMP_temperature;BMP_pressure;BME280_temperature;BME280_humidity;BME280_pressure;Samples;Min_cycle;Max_cycle;Signal;HPM_P1;HPM_P2
2022/08/20 00:00:20;;;;;;;2.70;2.40;;;22.90;73.80;;;;;;5026480;28;20209;-85
2022/08/20 00:03:00;;;;;;;2.65;2.50;;;22.90;73.60;;;;;;5023311;28;20212;-86
2022/08/20 00:05:33;;;;;;;2.70;2.50;;;22.90;73.60;;;;;;5025744;28;20292;-85
2022/08/20 00:07:59;;;;;;;2.95;2.70;;;22.80;73.90;;;;;;5027823;28;20675;-86
2022/08/20 00:10:27;;;;;;;2.67;2.58;;;22.70;75.00;;;;;;5024238;28;20208;-86
2022/08/20 00:12:54;;;;;;;2.65;2.55;;;22.60;75.70;;;;;;5027282;28;20215;-86
2022/08/20 00:15:27;;;;;;;3.00;2.70;;;22.60;75.40;;;;;;5021417;28;20193;-85
2022/08/20 00:17:53;;;;;;;3.03;2.83;;;22.60;75.20;;;;;;5022749;28;20715;-86
2022/08/20 00:20:22;;;;;;;3.00;2.80;;;22.60;75.40;;;;;;5020693;28;20495;-86
2022/08/20 00:22:47;;;;;;;3.05;2.85;;;22.60;75.60;;;;;;5024104;28;20189;-86
2022/08/20 00:25:14;;;;;;;3.10;2.90;;;22.60;76.00;;;;;;5023264;28;20823;-86
2022/08/20 00:27:40;;;;;;;2.63;2.53;;;22.60;76.30;;;;;;5023466;28;20191;-86
2022/08/20 00:30:08;;;;;;;2.92;2.72;;;22.70;76.00;;;;;;5023689;28;20210;-86
2022/08/20 00:33:08;;;;;;;2.55;2.35;;;22.70;75.70;;;;;;5023248;28;20260;-86
2022/08/20 00:35:38;;;;;;;2.83;2.63;;;22.70;75.70;;;;;;5021869;28;20224;-86
2022/08/20 00:38:05;;;;;;;2.78;2.60;;;22.70;76.30;;;;;;5021149;28;20182;-85
2022/08/20 00:40:38;;;;;;;2.80;2.70;;;22.60;76.00;;;;;;5028747;28;20700;-86
2022/08/20 00:43:22;;;;;;;3.05;2.85;;;22.70;75.70;;;;;;5022111;28;20577;-86
2022/08/20 00:45:49;;;;;;;3.10;2.90;;;22.60;76.80;;;;;;5022941;28;20685;-86
2022/08/20 00:48:15;;;;;;;3.17;2.90;;;22.50;77.10;;;;;;5026600;28;20732;-86
2022/08/20 00:50:41;;;;;;;5.32;3.17;;;22.60;77.00;;;;;;5029675;28;20255;-86
2022/08/20 00:53:07;;;;;;;3.05;2.85;;;22.50;77.70;;;;;;5028356;28;20251;-86
2022/08/20 00:55:35;;;;;;;3.50;3.13;;;22.50;77.80;;;;;;5021920;28;20205;-85
2022/08/20 00:58:07;;;;;;;3.13;2.92;;;22.40;78.10;;;;;;5020808;28;20193;-86
2022/08/20 01:00:37;;;;;;;2.80;2.70;;;22.50;78.10;;;;;;5022434;28;20627;-86
2022/08/20 01:03:10;;;;;;;7.25;3.50;;;22.40;78.30;;;;;;5029072;28;20250;-86
2022/08/20 01:05:41;;;;;;;3.10;2.90;;;22.50;78.30;;;;;;5024143;28;20204;-86
2022/08/20 01:08:08;;;;;;;3.05;2.85;;;22.40;78.60;;;;;;5026820;28;20220;-85
2022/08/20 01:10:37;;;;;;;3.20;2.92;;;22.50;78.40;;;;;;5031008;28;20296;-85
2022/08/20 01:13:09;;;;;;;2.80;2.60;;;22.60;78.00;;;;;;5027081;28;20252;-86
2022/08/20 01:15:41;;;;;;;5.72;2.90;;;22.50;78.40;;;;;;5023811;28;20656;-86
2022/08/20 01:18:12;;;;;;;3.45;3.05;;;22.50;79.00;;;;;;5028735;28;20208;-87
2022/08/20 01:20:45;;;;;;;3.50;3.20;;;22.40;79.20;;;;;;5025621;28;20715;-86
2022/08/20 01:23:26;;;;;;;3.38;3.17;;;22.40;78.90;;;;;;5029581;28;20221;-86
2022/08/20 01:26:04;;;;;;;3.08;2.88;;;22.50;78.80;;;;;;5020163;28;20205;-85
2022/08/20 01:28:44;;;;;;;3.67;3.30;;;22.50;78.80;;;;;;5025620;28;20264;-86
2022/08/20 01:31:16;;;;;;;3.70;3.40;;;22.60;78.50;;;;;;5025262;28;20206;-86
2022/08/20 01:33:44;;;;;;;3.22;3.03;;;22.60;78.60;;;;;;5029862;28;20211;-86
2022/08/20 01:36:10;;;;;;;3.20;3.00;;;22.50;78.70;;;;;;5027421;28;20687;-86
2022/08/20 01:38:40;;;;;;;3.38;3.17;;;22.50;79.20;;;;;;5030106;28;20688;-86
2022/08/20 01:41:16;;;;;;;3.45;3.15;;;22.50;80.80;;;;;;5028129;28;20215;-86
2022/08/20 01:43:44;;;;;;;3.33;3.13;;;22.50;79.40;;;;;;5022972;28;20189;-86
2022/08/20 01:46:12;;;;;;;3.70;3.42;;;22.50;79.60;;;;;;5025946;28;20721;-86
2022/08/20 01:48:39;;;;;;;3.33;3.10;;;22.50;79.10;;;;;;5026912;28;20269;-86
2022/08/20 01:51:08;;;;;;;3.85;3.55;;;22.50;79.30;;;;;;5024442;28;20228;-86
2022/08/20 01:53:38;;;;;;;3.40;3.20;;;22.50;79.90;;;;;;5029201;28;20177;-86
2022/08/20 01:56:06;;;;;;;4.82;3.30;;;22.50;79.70;;;;;;5027312;28;20590;-86
2022/08/20 01:58:34;;;;;;;3.70;3.40;;;22.50;79.50;;;;;;5028956;28;20181;-86
2022/08/20 02:01:00;;;;;;;3.45;3.15;;;22.60;79.30;;;;;;5026878;28;20295;-85
2022/08/20 02:03:25;;;;;;;3.67;3.47;;;22.50;79.50;;;;;;5029460;28;20256;-86
2022/08/20 02:05:52;;;;;;;3.55;3.22;;;22.40;80.00;;;;;;5028395;28;20767;-86
2022/08/20 02:08:20;;;;;;;3.63;3.33;;;22.50;80.30;;;;;;5032613;28;20215;-87
2022/08/20 02:10:46;;;;;;;3.42;3.22;;;22.40;80.40;;;;;;5029823;28;20221;-87
2022/08/20 02:13:12;;;;;;;3.65;3.35;;;22.40;80.40;;;;;;5024426;28;20177;-85
2022/08/20 02:15:38;;;;;;;3.90;3.60;;;22.40;80.60;;;;;;5023588;28;20248;-87
2022/08/20 02:18:10;;;;;;;3.55;3.25;;;22.40;80.90;;;;;;5023076;28;20204;-87
2022/08/20 02:20:37;;;;;;;3.55;3.35;;;22.40;80.60;;;;;;5023637;28;20685;-87
2022/08/20 02:23:04;;;;;;;3.80;3.60;;;22.30;81.10;;;;;;5026686;28;20193;-87
2022/08/20 02:25:33;;;;;;;3.88;3.45;;;22.30;81.40;;;;;;5025197;28;20620;-87
2022/08/20 02:28:04;;;;;;;3.42;3.22;;;22.40;81.10;;;;;;5025499;28;20567;-86
2022/08/20 02:30:34;;;;;;;4.00;3.70;;;22.40;81.10;;;;;;5021680;28;20654;-87
2022/08/20 02:33:02;;;;;;;3.78;3.47;;;22.30;81.80;;;;;;5025720;28;20181;-87
2022/08/20 02:35:28;;;;;;;4.30;4.00;;;22.30;82.10;;;;;;5021995;28;20178;-87
2022/08/20 02:37:54;;;;;;;3.83;3.50;;;22.30;82.40;;;;;;5025258;28;20196;-87
2022/08/20 02:40:22;;;;;;;3.63;3.38;;;22.30;82.50;;;;;;5027059;28;20227;-87
2022/08/20 02:42:47;;;;;;;4.10;3.80;;;22.40;81.70;;;;;;5030521;28;20216;-86
2022/08/20 02:45:16;;;;;;;4.05;3.75;;;22.40;81.80;;;;;;5021270;28;20252;-87
2022/08/20 02:47:44;;;;;;;3.80;3.42;;;22.40;81.80;;;;;;5027688;28;20215;-84
2022/08/20 02:50:16;;;;;;;3.97;3.67;;;22.40;81.40;;;;;;5028200;28;20240;-86
2022/08/20 02:52:43;;;;;;;4.38;4.05;;;22.40;81.80;;;;;;5029182;28;20184;-86
2022/08/20 02:55:10;;;;;;;4.22;3.92;;;22.50;81.40;;;;;;5028540;28;20204;-86
2022/08/20 02:57:37;;;;;;;4.28;3.78;;;22.50;81.30;;;;;;5024722;28;20224;-84
2022/08/20 03:00:11;;;;;;;4.10;3.80;;;22.50;81.10;;;;;;5030511;28;20205;-86
2022/08/20 03:02:36;;;;;;;4.10;3.80;;;22.40;81.60;;;;;;5027589;28;20201;-85
2022/08/20 03:05:03;;;;;;;4.30;4.00;;;22.30;82.20;;;;;;5028455;28;20275;-86
2022/08/20 03:07:29;;;;;;;4.10;3.80;;;22.20;83.00;;;;;;5027938;28;20192;-85
2022/08/20 03:09:55;;;;;;;4.25;3.90;;;22.30;82.70;;;;;;5027368;28;20204;-86
2022/08/20 03:12:20;;;;;;;4.40;4.10;;;22.30;82.80;;;;;;5024698;28;20185;-85
2022/08/20 03:14:46;;;;;;;4.45;4.07;;;22.30;82.70;;;;;;5034549;28;20220;-85
2022/08/20 03:17:12;;;;;;;4.40;4.10;;;22.20;83.10;;;;;;5027123;28;20282;-85
2022/08/20 03:19:38;;;;;;;4.30;4.00;;;22.30;83.10;;;;;;5024902;28;20202;-85
2022/08/20 03:22:04;;;;;;;4.55;4.25;;;22.30;83.40;;;;;;5030050;28;20192;-85
2022/08/20 03:24:29;;;;;;;4.28;3.97;;;22.30;83.20;;;;;;5024067;28;20472;-85
2022/08/20 03:26:55;;;;;;;4.68;4.15;;;22.20;83.20;;;;;;5026050;28;20190;-85
2022/08/20 03:29:20;;;;;;;4.85;4.43;;;22.10;84.00;;;;;;5029225;28;20588;-84
2022/08/20 03:31:46;;;;;;;4.55;4.25;;;22.10;83.70;;;;;;5025955;28;20196;-84
2022/08/20 03:34:12;;;;;;;4.45;4.07;;;22.10;84.30;;;;;;5028152;28;20386;-85
2022/08/20 03:36:38;;;;;;;4.60;4.20;;;22.00;84.20;;;;;;5029113;28;20189;-86
2022/08/20 03:39:10;;;;;;;4.60;4.30;;;22.00;84.70;;;;;;5026106;28;20280;-84
2022/08/20 03:41:36;;;;;;;4.72;4.32;;;22.10;84.60;;;;;;5028150;28;20264;-86
2022/08/20 03:44:02;;;;;;;4.95;4.40;;;22.20;84.00;;;;;;5025922;28;20260;-84
2022/08/20 03:46:27;;;;;;;4.78;4.47;;;22.00;84.30;;;;;;5026775;28;20304;-84
2022/08/20 03:48:54;;;;;;;4.85;4.53;;;21.90;85.50;;;;;;5031706;28;20236;-84
2022/08/20 03:51:20;;;;;;;4.80;4.50;;;22.00;85.30;;;;;;5030007;28;20243;-84
2022/08/20 03:53:45;;;;;;;5.40;5.00;;;21.80;86.00;;;;;;5029125;28;20416;-84
2022/08/20 03:56:11;;;;;;;4.82;4.53;;;21.70;87.10;;;;;;5027297;28;20240;-85
2022/08/20 03:58:37;;;;;;;5.40;5.00;;;21.60;87.20;;;;;;5031254;28;20202;-85
2022/08/20 04:01:05;;;;;;;5.30;4.90;;;21.70;87.10;;;;;;5027312;28;20741;-85
2022/08/20 04:03:31;;;;;;;5.18;4.78;;;21.80;85.80;;;;;;5025359;28;20748;-85
2022/08/20 04:05:57;;;;;;;5.40;5.00;;;22.00;85.70;;;;;;5026758;28;20256;-85
2022/08/20 04:08:25;;;;;;;5.30;4.90;;;22.00;85.10;;;;;;5026438;28;20255;-85
2022/08/20 04:10:52;;;;;;;5.72;5.22;;;22.00;85.50;;;;;;5025282;28;20262;-85
2022/08/20 04:13:21;;;;;;;5.68;5.18;;;22.00;85.20;;;;;;5026984;28;20181;-85
2022/08/20 04:15:47;;;;;;;5.47;4.90;;;22.00;84.90;;;;;;5025114;28;20227;-85
2022/08/20 04:18:19;;;;;;;6.70;5.60;;;21.90;86.00;;;;;;5022018;28;20200;-85
2022/08/20 04:20:45;;;;;;;5.30;4.90;;;21.90;86.10;;;;;;5026476;28;20237;-84
2022/08/20 04:23:12;;;;;;;6.00;5.53;;;21.80;86.20;;;;;;5031009;28;20303;-84
2022/08/20 04:25:40;;;;;;;6.30;5.80;;;21.90;86.30;;;;;;5027590;28;20292;-84
2022/08/20 04:28:09;;;;;;;6.35;5.90;;;21.80;86.70;;;;;;5026884;28;20599;-85
2022/08/20 04:30:35;;;;;;;6.00;5.55;;;21.70;88.20;;;;;;5025139;28;20197;-84
2022/08/20 04:33:01;;;;;;;5.20;4.90;;;21.70;87.30;;;;;;5022243;28;20192;-84
2022/08/20 04:35:28;;;;;;;7.00;5.30;;;21.70;87.10;;;;;;5026120;28;20699;-84
2022/08/20 04:38:00;;;;;;;5.68;5.20;;;21.80;87.00;;;;;;5025716;28;20272;-84
2022/08/20 04:43:10;;;;;;;6.00;5.60;;;21.90;86.30;;;;;;5033101;28;20275;-85
2022/08/20 04:45:36;;;;;;;5.90;5.40;;;21.80;86.80;;;;;;5036314;28;20268;-84
2022/08/20 04:48:04;;;;;;;6.47;5.88;;;21.70;87.30;;;;;;5037527;28;20215;-85
2022/08/20 04:50:34;;;;;;;6.25;5.70;;;21.70;87.80;;;;;;5031105;28;20264;-85
2022/08/20 04:53:06;;;;;;;6.25;5.55;;;21.70;87.50;;;;;;5030928;28;20266;-85
2022/08/20 04:55:33;;;;;;;6.22;5.82;;;21.80;87.40;;;;;;5030383;28;20235;-87
2022/08/20 04:58:08;;;;;;;6.60;6.00;;;21.80;86.90;;;;;;5034525;28;20197;-85
2022/08/20 05:00:34;;;;;;;9.20;6.00;;;21.70;87.60;;;;;;5029790;28;20255;-85
2022/08/20 05:03:01;;;;;;;5.65;5.25;;;21.70;87.70;;;;;;5032981;28;20275;-85
2022/08/20 05:05:27;;;;;;;6.45;5.85;;;21.70;87.80;;;;;;5036245;28;20624;-85
2022/08/20 05:07:54;;;;;;;6.15;5.45;;;21.60;88.50;;;;;;5037389;28;20207;-85
2022/08/20 05:10:20;;;;;;;6.68;5.97;;;21.50;89.20;;;;;;5027838;28;20525;-85
2022/08/20 05:12:46;;;;;;;7.03;6.05;;;21.50;89.10;;;;;;5030894;28;20185;-85
2022/08/20 05:15:12;;;;;;;6.22;5.72;;;21.50;88.80;;;;;;5032501;28;20230;-85
2022/08/20 05:17:39;;;;;;;7.47;5.97;;;21.30;89.70;;;;;;5030429;28;20186;-85
2022/08/20 05:20:08;;;;;;;7.07;6.47;;;21.20;90.40;;;;;;5033822;28;20239;-86
2022/08/20 05:22:34;;;;;;;6.88;6.38;;;21.20;90.60;;;;;;5036334;28;20259;-86
2022/08/20 05:25:00;;;;;;;6.63;6.03;;;21.20;90.40;;;;;;5032448;28;20204;-85
2022/08/20 05:27:27;;;;;;;6.30;5.70;;;21.30;90.50;;;;;;5029099;28;20186;-86
2022/08/20 05:29:59;;;;;;;6.57;6.07;;;21.30;90.30;;;;;;5029316;28;20204;-86
2022/08/20 05:32:25;;;;;;;6.72;6.07;;;21.30;90.40;;;;;;5028796;28;20185;-86
2022/08/20 05:34:51;;;;;;;6.25;5.70;;;21.40;89.80;;;;;;5031599;28;20197;-85
2022/08/20 05:37:17;;;;;;;6.40;5.90;;;21.40;89.80;;;;;;5025070;28;20532;-86
2022/08/20 05:39:43;;;;;;;5.95;5.38;;;21.40;90.10;;;;;;5032715;28;20304;-85
2022/08/20 05:42:10;;;;;;;6.55;5.95;;;21.20;91.20;;;;;;5030798;28;20195;-86
2022/08/20 05:44:36;;;;;;;7.38;6.20;;;21.20;91.10;;;;;;5034021;28;20248;-86
2022/08/20 05:47:03;;;;;;;6.32;5.68;;;21.30;91.00;;;;;;5030306;28;20181;-86
2022/08/20 05:49:29;;;;;;;6.63;6.03;;;21.30;91.10;;;;;;5032473;28;20234;-85
2022/08/20 05:51:55;;;;;;;6.55;5.95;;;21.30;91.30;;;;;;5031490;28;20185;-85
2022/08/20 05:54:21;;;;;;;6.57;5.90;;;21.30;91.00;;;;;;5034329;28;20207;-85
2022/08/20 05:56:46;;;;;;;6.32;5.72;;;21.20;91.80;;;;;;5037256;28;20188;-86
2022/08/20 05:59:12;;;;;;;6.55;5.93;;;21.20;91.70;;;;;;5037696;28;20269;-85
2022/08/20 06:01:39;;;;;;;6.30;5.80;;;21.40;90.90;;;;;;5037811;28;20533;-86
2022/08/20 06:04:24;;;;;;;6.50;6.00;;;21.40;91.20;;;;;;5032659;28;20256;-85
2022/08/20 06:06:56;;;;;;;6.18;5.53;;;21.40;91.50;;;;;;5032441;28;20222;-86
2022/08/20 06:09:24;;;;;;;6.05;5.55;;;21.40;90.80;;;;;;5028220;28;20205;-86
2022/08/20 06:11:50;;;;;;;6.32;5.82;;;21.50;91.00;;;;;;5030204;28;20572;-85
2022/08/20 06:14:16;;;;;;;6.40;5.90;;;21.50;90.80;;;;;;5026984;28;20184;-85
2022/08/20 06:16:42;;;;;;;6.32;5.80;;;21.50;90.90;;;;;;5026725;28;20191;-85
2022/08/20 06:19:09;;;;;;;5.60;5.20;;;21.50;90.60;;;;;;5033877;28;20204;-86
2022/08/20 06:21:35;;;;;;;6.25;5.65;;;21.50;90.20;;;;;;5028923;28;20675;-86
2022/08/20 06:24:00;;;;;;;6.57;5.88;;;21.60;90.50;;;;;;5032953;28;20273;-85
2022/08/20 06:26:26;;;;;;;11.80;6.22;;;21.60;90.50;;;;;;5031760;28;20696;-85
2022/08/20 06:28:52;;;;;;;6.32;5.82;;;21.50;90.10;;;;;;5032074;28;20185;-85
2022/08/20 06:31:18;;;;;;;6.32;5.78;;;21.60;90.00;;;;;;5030996;28;20330;-85
2022/08/20 06:33:44;;;;;;;6.65;6.15;;;21.70;89.80;;;;;;5029552;28;20195;-85
2022/08/20 06:36:10;;;;;;;6.15;5.70;;;21.80;89.80;;;;;;5027207;28;20186;-85
2022/08/20 06:38:35;;;;;;;6.05;5.55;;;21.90;89.10;;;;;;5030661;28;20189;-85
2022/08/20 06:41:01;;;;;;;5.97;5.20;;;22.00;88.40;;;;;;5024872;28;20323;-85
2022/08/20 06:43:27;;;;;;;6.93;5.88;;;22.20;88.10;;;;;;5027468;28;20211;-85
2022/08/20 06:45:56;;;;;;;5.25;4.85;;;22.20;87.60;;;;;;5029517;28;20374;-85
2022/08/20 06:48:22;;;;;;;5.20;4.78;;;22.20;88.40;;;;;;5034231;28;21074;-85
2022/08/20 06:50:48;;;;;;;5.50;5.00;;;22.20;87.60;;;;;;5033370;28;20228;-84
2022/08/20 06:53:16;;;;;;;5.40;5.00;;;22.20;87.20;;;;;;5034727;28;20235;-85
2022/08/20 06:55:47;;;;;;;4.50;4.20;;;22.20;87.60;;;;;;5030307;28;20196;-85
2022/08/20 06:58:13;;;;;;;4.40;4.00;;;22.30;86.60;;;;;;5027829;28;20181;-84
2022/08/20 07:00:41;;;;;;;4.43;4.13;;;22.50;85.40;;;;;;5026948;28;20650;-85
2022/08/20 07:03:07;;;;;;;4.80;4.50;;;22.60;84.50;;;;;;5027247;28;20614;-84
2022/08/20 07:05:36;;;;;;;4.88;4.40;;;22.70;85.30;;;;;;5028162;28;20296;-84
2022/08/20 07:08:02;;;;;;;4.90;4.40;;;22.80;83.50;;;;;;5026357;28;20387;-86
2022/08/20 07:10:29;;;;;;;4.97;4.47;;;22.80;84.90;;;;;;5034404;28;20205;-85
2022/08/20 07:12:55;;;;;;;4.50;4.10;;;22.80;84.80;;;;;;5023707;28;20284;-85
2022/08/20 07:15:22;;;;;;;4.22;3.92;;;22.60;84.70;;;;;;5028053;28;20212;-85
2022/08/20 07:17:54;;;;;;;5.05;4.55;;;22.50;86.30;;;;;;5026871;28;20196;-85
2022/08/20 07:20:20;;;;;;;5.80;5.30;;;22.50;85.30;;;;;;5032110;28;20205;-85
2022/08/20 07:22:46;;;;;;;4.57;4.22;;;22.40;85.20;;;;;;5025406;28;20257;-84
2022/08/20 07:25:13;;;;;;;4.40;4.10;;;22.30;86.10;;;;;;5024067;28;20240;-85
2022/08/20 07:27:40;;;;;;;5.05;4.57;;;22.30;87.00;;;;;;5031638;28;20268;-84
2022/08/20 07:32:54;;;;;;;4.63;4.32;;;22.20;86.90;;;;;;5028873;28;20199;-84
2022/08/20 07:35:20;;;;;;;5.05;4.30;;;22.20;86.50;;;;;;5030598;28;20917;-84
2022/08/20 07:37:48;;;;;;;5.20;4.15;;;22.20;86.90;;;;;;5028115;28;20230;-84
2022/08/20 07:40:21;;;;;;;4.30;3.90;;;22.00;87.50;;;;;;5030919;28;20437;-84
2022/08/20 07:42:49;;;;;;;6.35;3.92;;;22.00;88.50;;;;;;5027736;28;20185;-84
2022/08/20 07:45:17;;;;;;;4.32;4.03;;;22.00;88.20;;;;;;5025905;28;20375;-85
2022/08/20 07:47:44;;;;;;;4.60;4.20;;;22.00;88.30;;;;;;5027586;28;20185;-85
2022/08/20 07:50:14;;;;;;;6.10;4.47;;;21.80;89.80;;;;;;5027628;28;20246;-85
2022/08/20 07:52:39;;;;;;;4.65;4.28;;;21.70;93.60;;;;;;5026408;28;20192;-85
2022/08/20 07:55:08;;;;;;;4.60;4.25;;;21.80;93.50;;;;;;5025404;28;20482;-85
2022/08/20 07:57:35;;;;;;;4.72;4.32;;;21.90;94.30;;;;;;5028124;28;20240;-85
2022/08/20 08:00:02;;;;;;;4.90;4.50;;;22.00;93.40;;;;;;5023721;28;20271;-85
2022/08/20 08:02:28;;;;;;;4.70;4.32;;;21.80;94.70;;;;;;5023902;28;20194;-84
2022/08/20 08:04:54;;;;;;;4.53;4.13;;;21.80;95.00;;;;;;5030043;28;20609;-85
2022/08/20 08:07:21;;;;;;;5.00;4.57;;;21.70;97.20;;;;;;5023641;28;20199;-87
2022/08/20 08:09:48;;;;;;;4.97;4.57;;;21.60;96.70;;;;;;5024246;28;20220;-86
2022/08/20 08:12:14;;;;;;;4.63;4.22;;;21.60;98.60;;;;;;5024187;28;20248;-86
2022/08/20 08:14:43;;;;;;;7.22;5.10;;;21.50;99.40;;;;;;5027928;28;20665;-86
2022/08/20 08:17:10;;;;;;;5.25;4.82;;;21.60;99.40;;;;;;5028773;28;20197;-86
2022/08/20 08:19:42;;;;;;;5.05;4.60;;;21.60;99.90;;;;;;5037486;28;20576;-87
2022/08/20 08:22:11;;;;;;;4.57;4.25;;;21.70;98.50;;;;;;5027280;28;20184;-86
2022/08/20 08:24:42;;;;;;;4.70;4.40;;;21.90;98.00;;;;;;5032246;28;20196;-85
2022/08/20 08:27:08;;;;;;;4.90;4.50;;;21.90;97.20;;;;;;5033095;28;20195;-86
2022/08/20 08:29:34;;;;;;;4.75;4.45;;;22.00;98.10;;;;;;5035594;28;20562;-86
2022/08/20 08:32:02;;;;;;;4.68;4.25;;;22.20;97.80;;;;;;5034005;28;20205;-85
2022/08/20 08:34:30;;;;;;;4.10;3.80;;;22.20;95.90;;;;;;5032412;28;20238;-87
2022/08/20 08:36:57;;;;;;;5.03;4.63;;;22.30;96.40;;;;;;5028389;28;20185;-86
2022/08/20 08:39:23;;;;;;;4.60;4.30;;;22.30;96.50;;;;;;5036280;28;20274;-86
2022/08/20 08:41:50;;;;;;;4.50;4.20;;;22.20;96.80;;;;;;5031073;28;20671;-85
2022/08/20 08:44:23;;;;;;;4.30;4.00;;;22.10;97.50;;;;;;5026661;28;20711;-85
2022/08/20 08:46:57;;;;;;;4.47;4.05;;;22.20;96.20;;;;;;5031502;28;20186;-86
2022/08/20 08:49:30;;;;;;;4.35;3.90;;;22.10;95.30;;;;;;5031336;28;20232;-85
2022/08/20 08:52:02;;;;;;;4.47;3.90;;;22.30;94.70;;;;;;5029756;28;20188;-85
2022/08/20 08:54:30;;;;;;;4.22;3.83;;;22.30;94.00;;;;;;5026198;28;20706;-85
2022/08/20 08:56:55;;;;;;;4.68;4.30;;;22.40;92.90;;;;;;5032924;28;20189;-84
2022/08/20 08:59:22;;;;;;;4.22;3.83;;;22.30;93.50;;;;;;5031404;28;20224;-84
2022/08/20 09:01:54;;;;;;;4.38;3.97;;;22.40;92.80;;;;;;5028280;28;20208;-84
2022/08/20 09:04:22;;;;;;;3.72;3.42;;;22.50;93.70;;;;;;5026203;28;20186;-84
2022/08/20 09:06:53;;;;;;;3.47;3.17;;;22.60;93.70;;;;;;5027860;28;20216;-85
2022/08/20 09:09:29;;;;;;;3.78;3.47;;;22.70;93.70;;;;;;5033088;28;20539;-85
2022/08/20 09:12:02;;;;;;;3.95;3.65;;;22.90;91.60;;;;;;5029821;28;20181;-85
2022/08/20 09:14:28;;;;;;;3.72;3.42;;;22.70;91.40;;;;;;5030984;28;20216;-84
2022/08/20 09:16:53;;;;;;;3.80;3.53;;;22.80;91.00;;;;;;5029860;28;20668;-85
2022/08/20 09:19:20;;;;;;;4.10;3.00;;;22.90;91.50;;;;;;5029186;28;20209;-84
2022/08/20 09:21:45;;;;;;;3.00;2.75;;;23.00;90.20;;;;;;5033851;28;20184;-85
2022/08/20 09:24:11;;;;;;;2.90;2.70;;;23.20;87.60;;;;;;5028125;28;20192;-85
2022/08/20 09:26:37;;;;;;;3.50;2.45;;;23.50;85.20;;;;;;5025680;28;20247;-85
2022/08/20 09:29:03;;;;;;;3.00;2.80;;;23.80;82.60;;;;;;5026573;28;20563;-85
2022/08/20 09:31:28;;;;;;;2.78;2.58;;;23.90;80.20;;;;;;5031695;28;20308;-85
2022/08/20 09:33:54;;;;;;;2.80;2.60;;;24.00;79.70;;;;;;5033377;28;20186;-85
2022/08/20 09:36:20;;;;;;;2.90;2.70;;;23.90;80.80;;;;;;5025496;28;20202;-86
2022/08/20 09:38:45;;;;;;;2.65;2.45;;;23.80;81.20;;;;;;5029622;28;20217;-83
2022/08/20 09:41:11;;;;;;;2.83;2.63;;;23.90;79.30;;;;;;5033800;28;20220;-84
2022/08/20 09:43:37;;;;;;;3.47;3.00;;;24.00;81.10;;;;;;5025723;28;20292;-86
2022/08/20 09:46:03;;;;;;;2.92;2.72;;;23.90;83.90;;;;;;5021897;28;20205;-86
2022/08/20 09:48:28;;;;;;;3.15;2.95;;;24.20;82.50;;;;;;5026724;28;20323;-85
2022/08/20 09:50:54;;;;;;;3.00;2.80;;;24.30;78.70;;;;;;5026013;28;20260;-84
2022/08/20 09:53:20;;;;;;;3.08;2.88;;;24.70;80.00;;;;;;5031913;28;20196;-85
2022/08/20 09:55:50;;;;;;;3.13;2.92;;;24.70;75.50;;;;;;5029034;28;20185;-85
2022/08/20 09:58:22;;;;;;;3.10;2.90;;;25.30;73.80;;;;;;5012840;28;20197;-84
2022/08/20 10:00:48;;;;;;;2.70;2.60;;;25.70;73.40;;;;;;5030963;28;20216;-84
2022/08/20 10:03:14;;;;;;;3.00;2.80;;;26.00;69.90;;;;;;5031286;28;20181;-84
2022/08/20 10:05:40;;;;;;;3.10;2.90;;;26.30;68.10;;;;;;5026097;28;20284;-84
2022/08/20 10:08:08;;;;;;;3.28;3.08;;;26.60;65.40;;;;;;5029123;28;20743;-84
2022/08/20 10:10:34;;;;;;;3.35;3.05;;;26.60;66.10;;;;;;5028784;28;20562;-84
2022/08/20 10:13:01;;;;;;;3.17;2.97;;;26.50;65.70;;;;;;5035149;28;20188;-84
2022/08/20 10:15:27;;;;;;;4.55;3.03;;;26.30;66.70;;;;;;5031754;28;20188;-84
2022/08/20 10:17:53;;;;;;;3.30;3.10;;;26.10;67.30;;;;;;5026576;28;20197;-84
2022/08/20 10:20:19;;;;;;;3.17;2.97;;;26.10;68.50;;;;;;5028061;28;20223;-84
2022/08/20 10:22:45;;;;;;;3.25;3.05;;;25.90;68.20;;;;;;5029530;28;20561;-84
2022/08/20 10:25:11;;;;;;;3.40;3.20;;;25.70;68.70;;;;;;5023403;28;20252;-84
2022/08/20 10:27:37;;;;;;;3.20;3.00;;;25.70;67.80;;;;;;5027016;28;20253;-85
2022/08/20 10:30:05;;;;;;;3.45;3.15;;;25.90;68.30;;;;;;5024127;28;21171;-85
2022/08/20 10:32:31;;;;;;;3.20;3.00;;;25.90;65.60;;;;;;5024447;28;20683;-84
2022/08/20 10:34:56;;;;;;;3.08;2.88;;;25.80;67.00;;;;;;5025379;28;20197;-84
2022/08/20 10:37:24;;;;;;;3.30;3.10;;;25.70;66.90;;;;;;5024417;28;20541;-84
2022/08/20 10:39:50;;;;;;;3.05;2.90;;;25.70;69.00;;;;;;5024007;28;20224;-85
2022/08/20 10:42:16;;;;;;;3.22;3.03;;;25.70;68.20;;;;;;5025009;28;20220;-84
2022/08/20 10:44:42;;;;;;;2.97;2.78;;;25.70;68.70;;;;;;5022807;28;20201;-86
2022/08/20 10:47:19;;;;;;;3.10;2.90;;;25.70;67.80;;;;;;5022992;28;20192;-85
2022/08/20 10:49:46;;;;;;;3.00;2.72;;;25.90;67.00;;;;;;5023497;28;20247;-85
2022/08/20 10:52:12;;;;;;;3.50;3.20;;;25.70;66.50;;;;;;5022124;28;20207;-84
2022/08/20 10:54:40;;;;;;;3.28;3.00;;;25.80;66.70;;;;;;5023897;28;20420;-85
2022/08/20 10:57:14;;;;;;;3.25;3.03;;;25.90;66.00;;;;;;5020732;28;20251;-85
2022/08/20 10:59:42;;;;;;;3.38;3.08;;;25.90;65.30;;;;;;5021912;28;20205;-85
2022/08/20 11:02:08;;;;;;;3.28;3.05;;;26.40;63.30;;;;;;5022376;28;20189;-85
2022/08/20 11:04:34;;;;;;;2.95;2.75;;;26.70;59.60;;;;;;5022132;28;20288;-85
2022/08/20 11:07:31;;;;;;;2.97;2.78;;;26.90;59.30;;;;;;5023479;28;20181;-85
2022/08/20 11:09:57;;;;;;;2.80;2.60;;;26.80;58.30;;;;;;5017003;28;20747;-85
2022/08/20 11:12:23;;;;;;;2.78;2.65;;;26.70;60.80;;;;;;5024381;28;20268;-85
2022/08/20 11:14:50;;;;;;;2.65;2.55;;;26.60;59.00;;;;;;5023812;28;20310;-85
2022/08/20 11:17:25;;;;;;;2.67;2.40;;;26.30;60.70;;;;;;5022016;28;20193;-85
2022/08/20 11:19:51;;;;;;;2.55;2.40;;;26.20;60.60;;;;;;5001711;28;20229;-85
2022/08/20 11:22:17;;;;;;;2.42;2.30;;;26.10;60.00;;;;;;5019063;28;20197;-84
2022/08/20 11:24:43;;;;;;;2.50;2.40;;;26.40;58.60;;;;;;5018951;28;20656;-84
2022/08/20 11:27:09;;;;;;;2.33;2.22;;;26.70;57.70;;;;;;5018510;28;20700;-85
2022/08/20 11:29:36;;;;;;;2.47;2.28;;;27.10;57.20;;;;;;5019705;28;20861;-84
2022/08/20 11:32:04;;;;;;;3.25;2.42;;;27.10;55.60;;;;;;5020644;28;20272;-85
2022/08/20 11:34:29;;;;;;;2.47;2.28;;;27.30;57.00;;;;;;5021293;28;20192;-86
2022/08/20 11:36:56;;;;;;;2.33;2.22;;;27.20;55.10;;;;;;5019656;28;20209;-85
2022/08/20 11:39:21;;;;;;;2.30;2.20;;;27.10;54.80;;;;;;5021911;28;20216;-86
2022/08/20 11:41:47;;;;;;;2.50;2.40;;;27.40;54.10;;;;;;5023207;28;20189;-85
2022/08/20 11:44:13;;;;;;;2.40;2.30;;;27.60;53.00;;;;;;5022867;28;20653;-85
2022/08/20 11:46:38;;;;;;;2.10;2.00;;;27.80;51.50;;;;;;5019296;28;20221;-85
2022/08/20 11:49:04;;;;;;;2.20;2.10;;;27.80;51.50;;;;;;5017036;28;20723;-85
2022/08/20 11:51:30;;;;;;;2.40;2.30;;;27.70;51.50;;;;;;5018678;28;20245;-85
2022/08/20 11:53:55;;;;;;;2.30;2.20;;;27.90;51.40;;;;;;5019450;28;20188;-85
2022/08/20 11:56:21;;;;;;;2.60;2.40;;;28.40;50.10;;;;;;5018832;28;20194;-85
2022/08/20 11:58:47;;;;;;;2.35;2.25;;;28.60;48.80;;;;;;5018436;28;20194;-85
2022/08/20 12:01:13;;;;;;;2.60;2.40;;;29.10;47.90;;;;;;5018562;28;20208;-85
2022/08/20 12:03:38;;;;;;;2.83;2.63;;;29.20;47.30;;;;;;5018943;28;20215;-85
2022/08/20 12:06:04;;;;;;;4.03;2.47;;;28.80;47.40;;;;;;5017943;28;20232;-85
2022/08/20 12:08:30;;;;;;;2.80;2.60;;;29.00;48.10;;;;;;5017998;28;20189;-85
2022/08/20 12:10:57;;;;;;;2.50;2.40;;;28.90;48.80;;;;;;5020144;28;20383;-85
2022/08/20 12:13:24;;;;;;;2.60;2.40;;;28.90;47.90;;;;;;5018758;28;20247;-84
2022/08/20 12:15:53;;;;;;;2.35;2.25;;;28.80;46.40;;;;;;5020511;28;20548;-84
2022/08/20 12:18:19;;;;;;;2.45;2.35;;;28.90;45.00;;;;;;5020368;28;20707;-85
2022/08/20 12:20:45;;;;;;;2.33;2.22;;;29.40;44.40;;;;;;5019717;28;20213;-85
2022/08/20 12:23:11;;;;;;;2.58;2.47;;;29.40;44.80;;;;;;5019599;28;20284;-85
2022/08/20 12:25:37;;;;;;;2.40;2.30;;;29.50;44.20;;;;;;5018554;28;21035;-85
2022/08/20 12:28:04;;;;;;;2.30;2.20;;;29.70;43.60;;;;;;5020418;28;20185;-85
2022/08/20 12:30:30;;;;;;;3.95;2.30;;;29.60;42.80;;;;;;5021023;28;20202;-85
2022/08/20 12:32:57;;;;;;;2.50;2.30;;;30.10;42.90;;;;;;5020417;28;20186;-85
2022/08/20 12:35:22;;;;;;;3.55;2.40;;;30.30;42.40;;;;;;5020520;28;20189;-85
2022/08/20 12:37:48;;;;;;;3.00;2.08;;;30.30;41.80;;;;;;5022299;28;20211;-85
2022/08/20 12:40:17;;;;;;;2.30;2.20;;;29.90;40.90;;;;;;5022019;28;20247;-85
2022/08/20 12:42:43;;;;;;;2.47;2.30;;;30.10;40.50;;;;;;5020861;28;20189;-85
2022/08/20 12:45:10;;;;;;;2.50;2.40;;;30.40;40.70;;;;;;5022451;28;20208;-85
2022/08/20 12:47:41;;;;;;;2.70;2.50;;;30.60;39.50;;;;;;5025584;28;20182;-85
2022/08/20 12:50:22;;;;;;;2.33;2.22;;;30.40;39.00;;;;;;5026415;28;20686;-84
2022/08/20 12:52:48;;;;;;;2.30;2.20;;;30.60;39.20;;;;;;5024326;28;20236;-86
2022/08/20 12:55:17;;;;;;;2.33;2.22;;;30.60;38.70;;;;;;5021145;28;20270;-84